sensor_id;sensor_type;location;lat;lon;timestamp;temperature;humidity
18291;DHT22;9271;48.590;8.866;2023-03-11T00:00:40;3.80;95.40
18291;DHT22;9271;48.590;8.866;2023-03-11T00:03:08;3.70;96.10
18291;DHT22;9271;48.590;8.866;2023-03-11T00:05:36;3.50;95.90
18291;DHT22;9271;48.590;8.866;2023-03-11T00:08:04;3.60;96.20
18291;DHT22;9271;48.590;8.866;2023-03-11T00:10:33;3.60;95.70
18291;DHT22;9271;48.590;8.866;2023-03-11T00:13:00;3.60;96.00
18291;DHT22;9271;48.590;8.866;2023-03-11T00:15:27;3.60;96.40
18291;DHT22;9271;48.590;8.866;2023-03-11T00:17:56;3.70;95.60
18291;DHT22;9271;48.590;8.866;2023-03-11T00:20:25;3.90;95.60
18291;DHT22;9271;48.590;8.866;2023-03-11T00:22:53;4.10;95.40
18291;DHT22;9271;48.590;8.866;2023-03-11T00:25:21;4.00;96.00
18291;DHT22;9271;48.590;8.866;2023-03-11T00:27:48;4.10;95.50
18291;DHT22;9271;48.590;8.866;2023-03-11T00:30:24;4.00;95.10
18291;DHT22;9271;48.590;8.866;2023-03-11T00:32:59;4.00;95.40
18291;DHT22;9271;48.590;8.866;2023-03-11T00:35:27;3.80;96.40
18291;DHT22;9271;48.590;8.866;2023-03-11T00:37:55;4.10;96.10
18291;DHT22;9271;48.590;8.866;2023-03-11T00:40:24;3.90;95.00
18291;DHT22;9271;48.590;8.866;2023-03-11T00:42:51;3.70;96.50
18291;DHT22;9271;48.590;8.866;2023-03-11T00:45:18;3.80;96.10
18291;DHT22;9271;48.590;8.866;2023-03-11T00:47:45;3.90;96.50
18291;DHT22;9271;48.590;8.866;2023-03-11T00:50:17;3.80;95.60
18291;DHT22;9271;48.590;8.866;2023-03-11T00:52:45;3.90;96.20
18291;DHT22;9271;48.590;8.866;2023-03-11T00:55:14;4.10;95.40
18291;DHT22;9271;48.590;8.866;2023-03-11T00:57:41;4.20;95.70
18291;DHT22;9271;48.590;8.866;2023-03-11T01:00:11;4.20;95.70
18291;DHT22;9271;48.590;8.866;2023-03-11T01:02:38;4.20;95.20
18291;DHT22;9271;48.590;8.866;2023-03-11T01:05:06;4.10;95.20
18291;DHT22;9271;48.590;8.866;2023-03-11T01:07:34;4.10;95.90
18291;DHT22;9271;48.590;8.866;2023-03-11T01:10:01;4.40;95.30
18291;DHT22;9271;48.590;8.866;2023-03-11T01:12:27;4.50;95.50
18291;DHT22;9271;48.590;8.866;2023-03-11T01:14:54;4.70;94.80
18291;DHT22;9271;48.590;8.866;2023-03-11T01:17:21;4.40;95.50
18291;DHT22;9271;48.590;8.866;2023-03-11T01:19:48;4.60;95.40
18291;DHT22;9271;48.590;8.866;2023-03-11T01:22:15;4.70;95.40
18291;DHT22;9271;48.590;8.866;2023-03-11T01:24:43;4.30;95.80
18291;DHT22;9271;48.590;8.866;2023-03-11T01:27:10;4.40;96.00
18291;DHT22;9271;48.590;8.866;2023-03-11T01:29:37;4.50;96.00
18291;DHT22;9271;48.590;8.866;2023-03-11T01:32:04;4.30;96.00
18291;DHT22;9271;48.590;8.866;2023-03-11T01:34:31;4.30;96.20
18291;DHT22;9271;48.590;8.866;2023-03-11T01:37:00;4.20;96.70
18291;DHT22;9271;48.590;8.866;2023-03-11T01:39:26;4.20;97.00
18291;DHT22;9271;48.590;8.866;2023-03-11T01:41:54;4.00;96.60
18291;DHT22;9271;48.590;8.866;2023-03-11T01:44:21;4.00;96.40
18291;DHT22;9271;48.590;8.866;2023-03-11T01:49:48;4.10;95.70
18291;DHT22;9271;48.590;8.866;2023-03-11T01:52:15;4.00;95.70
18291;DHT22;9271;48.590;8.866;2023-03-11T01:54:41;4.20;95.50
18291;DHT22;9271;48.590;8.866;2023-03-11T01:57:12;4.30;95.00
18291;DHT22;9271;48.590;8.866;2023-03-11T01:59:42;4.50;94.60
18291;DHT22;9271;48.590;8.866;2023-03-11T02:02:13;4.40;94.50
18291;DHT22;9271;48.590;8.866;2023-03-11T02:04:43;4.50;94.20
18291;DHT22;9271;48.590;8.866;2023-03-11T02:07:10;4.40;94.70
18291;DHT22;9271;48.590;8.866;2023-03-11T02:09:38;4.30;94.70
18291;DHT22;9271;48.590;8.866;2023-03-11T02:12:06;4.50;94.70
18291;DHT22;9271;48.590;8.866;2023-03-11T02:14:37;4.60;94.40
18291;DHT22;9271;48.590;8.866;2023-03-11T02:17:04;4.60;94.30
18291;DHT22;9271;48.590;8.866;2023-03-11T02:19:40;4.40;94.30
18291;DHT22;9271;48.590;8.866;2023-03-11T02:22:12;3.90;94.30
18291;DHT22;9271;48.590;8.866;2023-03-11T02:24:44;3.60;94.40
18291;DHT22;9271;48.590;8.866;2023-03-11T02:27:14;3.40;94.50
18291;DHT22;9271;48.590;8.866;2023-03-11T02:29:42;3.30;94.90
18291;DHT22;9271;48.590;8.866;2023-03-11T02:32:10;3.30;95.00
18291;DHT22;9271;48.590;8.866;2023-03-11T02:34:38;3.20;94.10
18291;DHT22;9271;48.590;8.866;2023-03-11T02:37:06;3.20;94.60
18291;DHT22;9271;48.590;8.866;2023-03-11T02:39:35;3.40;94.40
18291;DHT22;9271;48.590;8.866;2023-03-11T02:42:05;3.50;95.10
18291;DHT22;9271;48.590;8.866;2023-03-11T02:44:34;3.60;94.20
18291;DHT22;9271;48.590;8.866;2023-03-11T02:47:01;3.70;94.70
18291;DHT22;9271;48.590;8.866;2023-03-11T02:49:28;3.80;94.80
18291;DHT22;9271;48.590;8.866;2023-03-11T02:51:55;3.80;94.40
18291;DHT22;9271;48.590;8.866;2023-03-11T02:54:22;3.70;94.60
18291;DHT22;9271;48.590;8.866;2023-03-11T02:56:48;3.50;94.80
18291;DHT22;9271;48.590;8.866;2023-03-11T02:59:15;3.40;94.50
18291;DHT22;9271;48.590;8.866;2023-03-11T03:01:43;3.30;94.40
18291;DHT22;9271;48.590;8.866;2023-03-11T03:04:10;3.30;94.60
18291;DHT22;9271;48.590;8.866;2023-03-11T03:06:36;3.40;94.90
18291;DHT22;9271;48.590;8.866;2023-03-11T03:09:03;3.50;94.70
18291;DHT22;9271;48.590;8.866;2023-03-11T03:11:30;3.50;94.50
18291;DHT22;9271;48.590;8.866;2023-03-11T03:13:57;3.50;94.50
18291;DHT22;9271;48.590;8.866;2023-03-11T03:16:24;3.50;94.40
18291;DHT22;9271;48.590;8.866;2023-03-11T03:18:52;3.40;94.60
18291;DHT22;9271;48.590;8.866;2023-03-11T03:21:19;3.30;94.30
18291;DHT22;9271;48.590;8.866;2023-03-11T03:23:46;3.00;94.60
18291;DHT22;9271;48.590;8.866;2023-03-11T03:26:13;3.00;94.70
18291;DHT22;9271;48.590;8.866;2023-03-11T03:28:40;2.90;94.30
18291;DHT22;9271;48.590;8.866;2023-03-11T03:31:08;2.90;94.70
18291;DHT22;9271;48.590;8.866;2023-03-11T03:33:35;2.80;94.80
18291;DHT22;9271;48.590;8.866;2023-03-11T03:36:07;2.90;94.30
18291;DHT22;9271;48.590;8.866;2023-03-11T03:38:34;3.00;94.30
18291;DHT22;9271;48.590;8.866;2023-03-11T03:41:00;3.00;94.60
18291;DHT22;9271;48.590;8.866;2023-03-11T03:43:27;2.90;94.60
18291;DHT22;9271;48.590;8.866;2023-03-11T03:45:55;2.80;94.50
18291;DHT22;9271;48.590;8.866;2023-03-11T03:48:22;2.80;94.30
18291;DHT22;9271;48.590;8.866;2023-03-11T03:50:49;2.80;94.40
18291;DHT22;9271;48.590;8.866;2023-03-11T03:53:17;2.70;95.00
18291;DHT22;9271;48.590;8.866;2023-03-11T03:55:44;2.70;94.60
18291;DHT22;9271;48.590;8.866;2023-03-11T03:58:11;2.60;94.30
18291;DHT22;9271;48.590;8.866;2023-03-11T04:00:38;2.60;94.30
18291;DHT22;9271;48.590;8.866;2023-03-11T04:03:04;2.50;94.40
18291;DHT22;9271;48.590;8.866;2023-03-11T04:05:32;2.50;94.60
18291;DHT22;9271;48.590;8.866;2023-03-11T04:07:58;2.30;94.70
18291;DHT22;9271;48.590;8.866;2023-03-11T04:10:27;2.20;94.40
18291;DHT22;9271;48.590;8.866;2023-03-11T04:12:54;2.20;94.80
18291;DHT22;9271;48.590;8.866;2023-03-11T04:15:20;2.10;94.90
18291;DHT22;9271;48.590;8.866;2023-03-11T04:17:47;2.00;95.10
18291;DHT22;9271;48.590;8.866;2023-03-11T04:20:14;1.90;95.60
18291;DHT22;9271;48.590;8.866;2023-03-11T04:22:40;1.90;95.60
18291;DHT22;9271;48.590;8.866;2023-03-11T04:25:07;1.90;95.60
18291;DHT22;9271;48.590;8.866;2023-03-11T04:27:35;1.80;95.60
18291;DHT22;9271;48.590;8.866;2023-03-11T04:30:04;1.80;95.70
18291;DHT22;9271;48.590;8.866;2023-03-11T04:32:31;1.80;95.80
18291;DHT22;9271;48.590;8.866;2023-03-11T04:34:57;1.70;95.90
18291;DHT22;9271;48.590;8.866;2023-03-11T04:37:26;1.60;95.30
18291;DHT22;9271;48.590;8.866;2023-03-11T04:39:53;1.60;95.50
18291;DHT22;9271;48.590;8.866;2023-03-11T04:42:20;1.80;95.40
18291;DHT22;9271;48.590;8.866;2023-03-11T04:44:48;1.80;95.10
18291;DHT22;9271;48.590;8.866;2023-03-11T04:47:14;1.90;95.00
18291;DHT22;9271;48.590;8.866;2023-03-11T04:49:41;1.90;94.70
18291;DHT22;9271;48.590;8.866;2023-03-11T04:52:08;1.70;95.30
18291;DHT22;9271;48.590;8.866;2023-03-11T04:54:34;1.70;95.50
18291;DHT22;9271;48.590;8.866;2023-03-11T04:57:01;1.70;95.10
18291;DHT22;9271;48.590;8.866;2023-03-11T04:59:28;1.80;95.00
18291;DHT22;9271;48.590;8.866;2023-03-11T05:01:56;1.70;94.70
18291;DHT22;9271;48.590;8.866;2023-03-11T05:04:22;1.70;94.80
18291;DHT22;9271;48.590;8.866;2023-03-11T05:06:49;1.60;94.80
18291;DHT22;9271;48.590;8.866;2023-03-11T05:09:16;1.50;95.10
18291;DHT22;9271;48.590;8.866;2023-03-11T05:11:43;1.50;95.50
18291;DHT22;9271;48.590;8.866;2023-03-11T05:14:09;1.50;95.40
18291;DHT22;9271;48.590;8.866;2023-03-11T05:16:36;1.50;95.80
18291;DHT22;9271;48.590;8.866;2023-03-11T05:19:04;1.50;95.80
18291;DHT22;9271;48.590;8.866;2023-03-11T05:21:51;1.50;95.80
18291;DHT22;9271;48.590;8.866;2023-03-11T05:24:17;1.40;95.60
18291;DHT22;9271;48.590;8.866;2023-03-11T05:26:44;1.40;95.70
18291;DHT22;9271;48.590;8.866;2023-03-11T05:29:11;1.30;95.80
18291;DHT22;9271;48.590;8.866;2023-03-11T05:31:37;1.30;95.70
18291;DHT22;9271;48.590;8.866;2023-03-11T05:34:06;1.40;96.20
18291;DHT22;9271;48.590;8.866;2023-03-11T05:36:32;1.40;96.00
18291;DHT22;9271;48.590;8.866;2023-03-11T05:38:59;1.40;96.10
18291;DHT22;9271;48.590;8.866;2023-03-11T05:41:25;1.40;96.50
18291;DHT22;9271;48.590;8.866;2023-03-11T05:43:52;1.50;96.20
18291;DHT22;9271;48.590;8.866;2023-03-11T05:46:19;1.50;96.40
18291;DHT22;9271;48.590;8.866;2023-03-11T05:48:46;1.60;96.50
18291;DHT22;9271;48.590;8.866;2023-03-11T05:51:14;1.60;96.60
18291;DHT22;9271;48.590;8.866;2023-03-11T05:53:41;1.60;96.60
18291;DHT22;9271;48.590;8.866;2023-03-11T05:56:12;1.60;96.40
18291;DHT22;9271;48.590;8.866;2023-03-11T05:58:39;1.70;96.70
18291;DHT22;9271;48.590;8.866;2023-03-11T06:01:07;1.60;96.90
18291;DHT22;9271;48.590;8.866;2023-03-11T06:03:35;1.70;96.90
18291;DHT22;9271;48.590;8.866;2023-03-11T06:06:03;1.60;96.60
18291;DHT22;9271;48.590;8.866;2023-03-11T06:08:31;1.60;96.60
18291;DHT22;9271;48.590;8.866;2023-03-11T06:11:00;1.70;96.40
18291;DHT22;9271;48.590;8.866;2023-03-11T06:13:27;1.80;96.60
18291;DHT22;9271;48.590;8.866;2023-03-11T06:15:54;1.80;96.30
18291;DHT22;9271;48.590;8.866;2023-03-11T06:18:20;2.00;96.00
18291;DHT22;9271;48.590;8.866;2023-03-11T06:20:47;2.20;95.80
18291;DHT22;9271;48.590;8.866;2023-03-11T06:23:14;2.50;95.40
18291;DHT22;9271;48.590;8.866;2023-03-11T06:25:42;2.60;95.30
18291;DHT22;9271;48.590;8.866;2023-03-11T06:28:08;2.60;94.90
18291;DHT22;9271;48.590;8.866;2023-03-11T06:30:35;3.00;95.10
18291;DHT22;9271;48.590;8.866;2023-03-11T06:33:02;3.40;94.60
18291;DHT22;9271;48.590;8.866;2023-03-11T06:35:29;4.10;94.00
18291;DHT22;9271;48.590;8.866;2023-03-11T06:37:55;5.20;92.70
18291;DHT22;9271;48.590;8.866;2023-03-11T06:40:22;6.50;91.10
18291;DHT22;9271;48.590;8.866;2023-03-11T06:42:50;8.10;88.10
18291;DHT22;9271;48.590;8.866;2023-03-11T06:45:17;9.60;81.20
18291;DHT22;9271;48.590;8.866;2023-03-11T06:47:43;10.60;74.40
18291;DHT22;9271;48.590;8.866;2023-03-11T06:50:10;11.30;69.60
18291;DHT22;9271;48.590;8.866;2023-03-11T06:52:37;12.00;64.10
18291;DHT22;9271;48.590;8.866;2023-03-11T06:55:05;11.70;62.10
18291;DHT22;9271;48.590;8.866;2023-03-11T06:57:32;11.20;62.30
18291;DHT22;9271;48.590;8.866;2023-03-11T07:00:00;9.80;65.30
18291;DHT22;9271;48.590;8.866;2023-03-11T07:02:26;8.50;69.10
18291;DHT22;9271;48.590;8.866;2023-03-11T07:04:53;8.00;71.50
18291;DHT22;9271;48.590;8.866;2023-03-11T07:07:20;8.10;73.00
18291;DHT22;9271;48.590;8.866;2023-03-11T07:09:46;7.50;71.00
18291;DHT22;9271;48.590;8.866;2023-03-11T07:12:13;6.90;73.80
18291;DHT22;9271;48.590;8.866;2023-03-11T07:14:40;6.40;74.80
18291;DHT22;9271;48.590;8.866;2023-03-11T07:17:08;6.30;77.80
18291;DHT22;9271;48.590;8.866;2023-03-11T07:19:35;6.60;76.20
18291;DHT22;9271;48.590;8.866;2023-03-11T07:22:01;6.50;75.60
18291;DHT22;9271;48.590;8.866;2023-03-11T07:24:28;6.20;77.10
18291;DHT22;9271;48.590;8.866;2023-03-11T07:26:55;6.60;75.60
18291;DHT22;9271;48.590;8.866;2023-03-11T07:29:22;7.00;76.40
18291;DHT22;9271;48.590;8.866;2023-03-11T07:31:49;7.60;73.90
18291;DHT22;9271;48.590;8.866;2023-03-11T07:34:17;8.30;73.10
18291;DHT22;9271;48.590;8.866;2023-03-11T07:36:43;8.40;70.30
18291;DHT22;9271;48.590;8.866;2023-03-11T07:39:12;7.60;71.00
18291;DHT22;9271;48.590;8.866;2023-03-11T07:41:39;7.70;72.50
18291;DHT22;9271;48.590;8.866;2023-03-11T07:44:06;8.00;70.90
18291;DHT22;9271;48.590;8.866;2023-03-11T07:46:34;7.70;72.30
18291;DHT22;9271;48.590;8.866;2023-03-11T07:49:01;8.90;71.80
18291;DHT22;9271;48.590;8.866;2023-03-11T07:51:32;10.70;62.50
18291;DHT22;9271;48.590;8.866;2023-03-11T07:54:00;12.40;58.60
18291;DHT22;9271;48.590;8.866;2023-03-11T07:56:29;14.80;54.10
18291;DHT22;9271;48.590;8.866;2023-03-11T07:58:57;16.60;49.30
18291;DHT22;9271;48.590;8.866;2023-03-11T08:01:27;17.30;45.80
18291;DHT22;9271;48.590;8.866;2023-03-11T08:04:01;18.70;43.60
18291;DHT22;9271;48.590;8.866;2023-03-11T08:06:31;19.20;40.00
18291;DHT22;9271;48.590;8.866;2023-03-11T08:08:59;19.00;37.90
18291;DHT22;9271;48.590;8.866;2023-03-11T08:11:26;18.80;37.40
18291;DHT22;9271;48.590;8.866;2023-03-11T08:13:53;20.30;36.10
18291;DHT22;9271;48.590;8.866;2023-03-11T08:16:22;21.10;34.10
18291;DHT22;9271;48.590;8.866;2023-03-11T08:18:50;20.00;33.10
18291;DHT22;9271;48.590;8.866;2023-03-11T08:21:19;18.70;33.30
18291;DHT22;9271;48.590;8.866;2023-03-11T08:23:47;18.60;35.40
18291;DHT22;9271;48.590;8.866;2023-03-11T08:26:16;20.30;33.70
18291;DHT22;9271;48.590;8.866;2023-03-11T08:28:43;21.40;31.30
18291;DHT22;9271;48.590;8.866;2023-03-11T08:31:14;22.80;30.10
18291;DHT22;9271;48.590;8.866;2023-03-11T08:33:41;22.20;28.20
18291;DHT22;9271;48.590;8.866;2023-03-11T08:36:08;21.70;28.70
18291;DHT22;9271;48.590;8.866;2023-03-11T08:38:35;22.60;27.90
18291;DHT22;9271;48.590;8.866;2023-03-11T08:41:03;21.80;27.50
18291;DHT22;9271;48.590;8.866;2023-03-11T08:43:30;21.60;29.10
18291;DHT22;9271;48.590;8.866;2023-03-11T08:45:58;22.60;27.80
18291;DHT22;9271;48.590;8.866;2023-03-11T08:48:25;22.00;27.10
18291;DHT22;9271;48.590;8.866;2023-03-11T08:50:52;21.60;28.70
18291;DHT22;9271;48.590;8.866;2023-03-11T08:53:18;22.30;28.20
18291;DHT22;9271;48.590;8.866;2023-03-11T08:55:45;20.90;27.90
18291;DHT22;9271;48.590;8.866;2023-03-11T08:58:13;18.60;28.90
18291;DHT22;9271;48.590;8.866;2023-03-11T09:00:40;17.00;31.50
18291;DHT22;9271;48.590;8.866;2023-03-11T09:03:07;16.50;33.40
18291;DHT22;9271;48.590;8.866;2023-03-11T09:05:34;16.80;33.40
18291;DHT22;9271;48.590;8.866;2023-03-11T09:08:02;18.20;32.50
18291;DHT22;9271;48.590;8.866;2023-03-11T09:10:29;20.10;30.00
18291;DHT22;9271;48.590;8.866;2023-03-11T09:12:56;22.50;28.80
18291;DHT22;9271;48.590;8.866;2023-03-11T09:15:24;23.90;27.50
18291;DHT22;9271;48.590;8.866;2023-03-11T09:17:51;25.70;24.50
18291;DHT22;9271;48.590;8.866;2023-03-11T09:20:19;26.20;24.60
18291;DHT22;9271;48.590;8.866;2023-03-11T09:22:45;26.40;23.40
18291;DHT22;9271;48.590;8.866;2023-03-11T09:25:12;23.70;25.00
18291;DHT22;9271;48.590;8.866;2023-03-11T09:27:39;21.20;26.00
18291;DHT22;9271;48.590;8.866;2023-03-11T09:30:08;20.60;27.10
18291;DHT22;9271;48.590;8.866;2023-03-11T09:32:36;20.00;28.10
18291;DHT22;9271;48.590;8.866;2023-03-11T09:35:03;19.80;28.30
18291;DHT22;9271;48.590;8.866;2023-03-11T09:37:30;19.20;27.90
18291;DHT22;9271;48.590;8.866;2023-03-11T09:39:57;17.30;28.90
18291;DHT22;9271;48.590;8.866;2023-03-11T09:42:30;15.70;30.60
18291;DHT22;9271;48.590;8.866;2023-03-11T09:45:02;13.80;33.60
18291;DHT22;9271;48.590;8.866;2023-03-11T09:47:38;14.50;36.30
18291;DHT22;9271;48.590;8.866;2023-03-11T09:50:19;19.00;30.60
18291;DHT22;9271;48.590;8.866;2023-03-11T09:52:52;21.90;26.80
18291;DHT22;9271;48.590;8.866;2023-03-11T09:55:43;20.70;26.50
18291;DHT22;9271;48.590;8.866;2023-03-11T09:58:14;16.50;29.40
18291;DHT22;9271;48.590;8.866;2023-03-11T10:00:43;14.00;33.30
18291;DHT22;9271;48.590;8.866;2023-03-11T10:03:30;12.10;36.20
18291;DHT22;9271;48.590;8.866;2023-03-11T10:06:03;11.80;36.30
18291;DHT22;9271;48.590;8.866;2023-03-11T10:08:35;11.50;36.50
18291;DHT22;9271;48.590;8.866;2023-03-11T10:11:15;12.10;37.30
18291;DHT22;9271;48.590;8.866;2023-03-11T10:13:51;13.50;35.80
18291;DHT22;9271;48.590;8.866;2023-03-11T10:16:27;13.60;35.50
18291;DHT22;9271;48.590;8.866;2023-03-11T10:19:03;15.00;31.30
18291;DHT22;9271;48.590;8.866;2023-03-11T10:21:42;18.70;31.20
18291;DHT22;9271;48.590;8.866;2023-03-11T10:24:18;22.50;27.40
18291;DHT22;9271;48.590;8.866;2023-03-11T10:26:52;24.90;24.10
18291;DHT22;9271;48.590;8.866;2023-03-11T10:29:24;24.30;23.20
18291;DHT22;9271;48.590;8.866;2023-03-11T10:31:56;22.50;26.00
18291;DHT22;9271;48.590;8.866;2023-03-11T10:34:31;23.00;25.00
18291;DHT22;9271;48.590;8.866;2023-03-11T10:37:04;19.30;26.30
18291;DHT22;9271;48.590;8.866;2023-03-11T10:39:36;17.80;28.30
18291;DHT22;9271;48.590;8.866;2023-03-11T10:42:08;20.40;28.00
18291;DHT22;9271;48.590;8.866;2023-03-11T10:44:37;22.70;25.80
18291;DHT22;9271;48.590;8.866;2023-03-11T10:47:05;24.50;25.40
18291;DHT22;9271;48.590;8.866;2023-03-11T10:49:34;25.90;22.90
18291;DHT22;9271;48.590;8.866;2023-03-11T10:52:02;25.80;22.50
18291;DHT22;9271;48.590;8.866;2023-03-11T10:54:32;25.90;22.70
18291;DHT22;9271;48.590;8.866;2023-03-11T10:57:00;26.60;22.80
18291;DHT22;9271;48.590;8.866;2023-03-11T10:59:30;27.80;21.10
18291;DHT22;9271;48.590;8.866;2023-03-11T11:01:58;29.40;20.30
18291;DHT22;9271;48.590;8.866;2023-03-11T11:04:29;29.20;18.60
18291;DHT22;9271;48.590;8.866;2023-03-11T11:06:57;27.00;19.90
18291;DHT22;9271;48.590;8.866;2023-03-11T11:09:25;25.40;20.00
18291;DHT22;9271;48.590;8.866;2023-03-11T11:12:03;21.60;22.80
18291;DHT22;9271;48.590;8.866;2023-03-11T11:14:44;22.10;23.10
18291;DHT22;9271;48.590;8.866;2023-03-11T11:17:21;20.80;23.60
18291;DHT22;9271;48.590;8.866;2023-03-11T11:19:49;20.20;23.90
18291;DHT22;9271;48.590;8.866;2023-03-11T11:22:19;20.90;23.80
18291;DHT22;9271;48.590;8.866;2023-03-11T11:24:48;20.10;23.80
18291;DHT22;9271;48.590;8.866;2023-03-11T11:27:18;21.00;24.30
18291;DHT22;9271;48.590;8.866;2023-03-11T11:29:46;23.30;23.70
18291;DHT22;9271;48.590;8.866;2023-03-11T11:32:20;23.40;22.70
18291;DHT22;9271;48.590;8.866;2023-03-11T11:34:55;24.10;22.00
18291;DHT22;9271;48.590;8.866;2023-03-11T11:37:24;20.90;22.80
18291;DHT22;9271;48.590;8.866;2023-03-11T11:39:58;21.50;23.60
18291;DHT22;9271;48.590;8.866;2023-03-11T11:42:27;21.20;22.60
18291;DHT22;9271;48.590;8.866;2023-03-11T11:44:57;21.00;23.40
18291;DHT22;9271;48.590;8.866;2023-03-11T11:47:29;20.10;23.10
18291;DHT22;9271;48.590;8.866;2023-03-11T11:50:00;18.80;24.50
18291;DHT22;9271;48.590;8.866;2023-03-11T11:52:35;16.90;26.30
18291;DHT22;9271;48.590;8.866;2023-03-11T11:55:05;16.80;27.60
18291;DHT22;9271;48.590;8.866;2023-03-11T11:57:33;17.20;27.20
18291;DHT22;9271;48.590;8.866;2023-03-11T12:00:00;15.60;28.00
18291;DHT22;9271;48.590;8.866;2023-03-11T12:02:41;16.50;29.70
18291;DHT22;9271;48.590;8.866;2023-03-11T12:05:14;18.50;27.20
18291;DHT22;9271;48.590;8.866;2023-03-11T12:07:58;20.70;26.30
18291;DHT22;9271;48.590;8.866;2023-03-11T12:10:28;21.90;23.80
18291;DHT22;9271;48.590;8.866;2023-03-11T12:13:14;22.10;23.00
18291;DHT22;9271;48.590;8.866;2023-03-11T12:15:49;22.30;24.50
18291;DHT22;9271;48.590;8.866;2023-03-11T12:18:22;20.50;23.10
18291;DHT22;9271;48.590;8.866;2023-03-11T12:20:53;20.40;24.40
18291;DHT22;9271;48.590;8.866;2023-03-11T12:23:34;20.10;24.70
18291;DHT22;9271;48.590;8.866;2023-03-11T12:26:14;19.50;24.80
18291;DHT22;9271;48.590;8.866;2023-03-11T12:28:45;20.10;25.20
18291;DHT22;9271;48.590;8.866;2023-03-11T12:31:14;21.50;24.70
18291;DHT22;9271;48.590;8.866;2023-03-11T12:33:43;19.60;23.60
18291;DHT22;9271;48.590;8.866;2023-03-11T12:36:21;20.10;24.70
18291;DHT22;9271;48.590;8.866;2023-03-11T12:38:51;21.30;25.50
18291;DHT22;9271;48.590;8.866;2023-03-11T12:41:29;21.50;23.60
18291;DHT22;9271;48.590;8.866;2023-03-11T12:44:03;22.90;23.20
18291;DHT22;9271;48.590;8.866;2023-03-11T12:49:37;21.30;23.80
18291;DHT22;9271;48.590;8.866;2023-03-11T12:52:16;22.80;23.90
18291;DHT22;9271;48.590;8.866;2023-03-11T12:54:45;22.20;22.70
18291;DHT22;9271;48.590;8.866;2023-03-11T12:57:30;22.20;23.20
18291;DHT22;9271;48.590;8.866;2023-03-11T13:00:16;22.60;22.20
18291;DHT22;9271;48.590;8.866;2023-03-11T13:03:08;22.60;21.80
18291;DHT22;9271;48.590;8.866;2023-03-11T13:05:53;22.40;22.10
18291;DHT22;9271;48.590;8.866;2023-03-11T13:08:22;20.90;24.50
18291;DHT22;9271;48.590;8.866;2023-03-11T13:10:52;20.80;23.40
18291;DHT22;9271;48.590;8.866;2023-03-11T13:13:29;19.80;24.80
18291;DHT22;9271;48.590;8.866;2023-03-11T13:15:57;20.10;25.20
18291;DHT22;9271;48.590;8.866;2023-03-11T13:18:46;20.80;24.10
18291;DHT22;9271;48.590;8.866;2023-03-11T13:21:36;21.10;24.60
18291;DHT22;9271;48.590;8.866;2023-03-11T13:24:39;21.10;23.80
18291;DHT22;9271;48.590;8.866;2023-03-11T13:27:11;18.60;25.70
18291;DHT22;9271;48.590;8.866;2023-03-11T13:29:52;17.20;26.80
18291;DHT22;9271;48.590;8.866;2023-03-11T13:32:30;16.30;27.90
18291;DHT22;9271;48.590;8.866;2023-03-11T13:35:11;17.80;27.40
18291;DHT22;9271;48.590;8.866;2023-03-11T13:37:43;18.50;26.50
18291;DHT22;9271;48.590;8.866;2023-03-11T13:40:22;17.50;27.10
18291;DHT22;9271;48.590;8.866;2023-03-11T13:42:51;17.10;28.40
18291;DHT22;9271;48.590;8.866;2023-03-11T13:45:26;15.70;27.70
18291;DHT22;9271;48.590;8.866;2023-03-11T13:47:56;16.00;28.40
18291;DHT22;9271;48.590;8.866;2023-03-11T13:50:27;17.40;27.10
18291;DHT22;9271;48.590;8.866;2023-03-11T13:52:56;19.10;26.30
18291;DHT22;9271;48.590;8.866;2023-03-11T13:55:29;20.60;25.60
18291;DHT22;9271;48.590;8.866;2023-03-11T13:57:57;21.10;23.90
18291;DHT22;9271;48.590;8.866;2023-03-11T14:00:26;22.00;24.40
18291;DHT22;9271;48.590;8.866;2023-03-11T14:02:54;22.70;22.90
18291;DHT22;9271;48.590;8.866;2023-03-11T14:05:24;23.60;22.90
18291;DHT22;9271;48.590;8.866;2023-03-11T14:07:52;24.60;22.80
18291;DHT22;9271;48.590;8.866;2023-03-11T14:10:29;25.10;21.20
18291;DHT22;9271;48.590;8.866;2023-03-11T14:13:12;23.30;22.50
18291;DHT22;9271;48.590;8.866;2023-03-11T14:15:44;23.50;22.70
18291;DHT22;9271;48.590;8.866;2023-03-11T14:18:36;22.90;21.70
18291;DHT22;9271;48.590;8.866;2023-03-11T14:21:08;23.40;23.70
18291;DHT22;9271;48.590;8.866;2023-03-11T14:23:40;23.30;22.30
18291;DHT22;9271;48.590;8.866;2023-03-11T14:26:11;21.40;22.60
18291;DHT22;9271;48.590;8.866;2023-03-11T14:28:40;20.00;24.50
18291;DHT22;9271;48.590;8.866;2023-03-11T14:31:21;18.80;25.10
18291;DHT22;9271;48.590;8.866;2023-03-11T14:33:53;17.80;26.00
18291;DHT22;9271;48.590;8.866;2023-03-11T14:36:22;17.20;26.10
18291;DHT22;9271;48.590;8.866;2023-03-11T14:38:48;17.20;27.50
18291;DHT22;9271;48.590;8.866;2023-03-11T14:41:15;17.80;26.90
18291;DHT22;9271;48.590;8.866;2023-03-11T14:43:45;17.20;25.90
18291;DHT22;9271;48.590;8.866;2023-03-11T14:46:17;16.40;27.50
18291;DHT22;9271;48.590;8.866;2023-03-11T14:48:45;15.60;28.40
18291;DHT22;9271;48.590;8.866;2023-03-11T14:51:15;15.10;28.20
18291;DHT22;9271;48.590;8.866;2023-03-11T14:53:45;14.60;29.00
18291;DHT22;9271;48.590;8.866;2023-03-11T14:56:15;13.90;29.40
18291;DHT22;9271;48.590;8.866;2023-03-11T14:58:48;13.50;30.50
18291;DHT22;9271;48.590;8.866;2023-03-11T15:01:19;12.60;32.30
18291;DHT22;9271;48.590;8.866;2023-03-11T15:03:50;12.40;32.70
18291;DHT22;9271;48.590;8.866;2023-03-11T15:06:20;12.30;32.30
18291;DHT22;9271;48.590;8.866;2023-03-11T15:08:51;12.20;31.80
18291;DHT22;9271;48.590;8.866;2023-03-11T15:11:23;12.40;32.80
18291;DHT22;9271;48.590;8.866;2023-03-11T15:13:51;13.20;32.10
18291;DHT22;9271;48.590;8.866;2023-03-11T15:16:29;13.80;31.70
18291;DHT22;9271;48.590;8.866;2023-03-11T15:18:57;14.20;31.70
18291;DHT22;9271;48.590;8.866;2023-03-11T15:21:25;14.60;30.40
18291;DHT22;9271;48.590;8.866;2023-03-11T15:23:58;14.50;31.40
18291;DHT22;9271;48.590;8.866;2023-03-11T15:26:27;14.00;32.40
18291;DHT22;9271;48.590;8.866;2023-03-11T15:28:57;13.10;33.20
18291;DHT22;9271;48.590;8.866;2023-03-11T15:31:30;12.60;34.10
18291;DHT22;9271;48.590;8.866;2023-03-11T15:34:20;12.50;33.90
18291;DHT22;9271;48.590;8.866;2023-03-11T15:36:55;12.50;34.90
18291;DHT22;9271;48.590;8.866;2023-03-11T15:39:27;12.00;35.20
18291;DHT22;9271;48.590;8.866;2023-03-11T15:42:12;12.00;36.30
18291;DHT22;9271;48.590;8.866;2023-03-11T15:44:41;11.90;35.30
18291;DHT22;9271;48.590;8.866;2023-03-11T15:47:12;11.90;36.20
18291;DHT22;9271;48.590;8.866;2023-03-11T15:49:39;11.70;35.30
18291;DHT22;9271;48.590;8.866;2023-03-11T15:52:06;11.70;36.30
18291;DHT22;9271;48.590;8.866;2023-03-11T15:54:35;11.60;36.60
18291;DHT22;9271;48.590;8.866;2023-03-11T15:57:05;11.20;36.50
18291;DHT22;9271;48.590;8.866;2023-03-11T15:59:33;11.20;37.50
18291;DHT22;9271;48.590;8.866;2023-03-11T16:02:00;11.40;37.40
18291;DHT22;9271;48.590;8.866;2023-03-11T16:04:27;11.20;38.50
18291;DHT22;9271;48.590;8.866;2023-03-11T16:06:54;10.90;38.50
18291;DHT22;9271;48.590;8.866;2023-03-11T16:09:20;10.80;39.30
18291;DHT22;9271;48.590;8.866;2023-03-11T16:11:48;10.80;39.70
18291;DHT22;9271;48.590;8.866;2023-03-11T16:14:17;10.50;39.50